sensor_id;sensor_type;location;lat;lon;timestamp;temperature;humidity
16966;DHT22;8599;47.852;12.070;2024-02-16T00:01:57;5.60;99.90
16966;DHT22;8599;47.852;12.070;2024-02-16T00:04:24;5.40;99.90
16966;DHT22;8599;47.852;12.070;2024-02-16T00:06:51;5.40;99.90
16966;DHT22;8599;47.852;12.070;2024-02-16T00:09:19;5.50;99.90
16966;DHT22;8599;47.852;12.070;2024-02-16T00:11:46;5.50;99.90
16966;DHT22;8599;47.852;12.070;2024-02-16T00:14:14;5.30;99.90
16966;DHT22;8599;47.852;12.070;2024-02-16T00:16:40;5.30;99.90
16966;DHT22;8599;47.852;12.070;2024-02-16T00:19:07;5.20;99.90
16966;DHT22;8599;47.852;12.070;2024-02-16T00:21:34;5.10;99.90
16966;DHT22;8599;47.852;12.070;2024-02-16T00:24:01;5.10;99.90
16966;DHT22;8599;47.852;12.070;2024-02-16T00:26:30;5.20;99.90
16966;DHT22;8599;47.852;12.070;2024-02-16T00:28:57;5.10;99.90
16966;DHT22;8599;47.852;12.070;2024-02-16T00:31:24;5.00;99.90
16966;DHT22;8599;47.852;12.070;2024-02-16T00:33:52;5.00;99.90
16966;DHT22;8599;47.852;12.070;2024-02-16T00:36:19;5.00;99.90
16966;DHT22;8599;47.852;12.070;2024-02-16T00:38:45;5.10;99.90
16966;DHT22;8599;47.852;12.070;2024-02-16T00:41:18;5.10;99.90
16966;DHT22;8599;47.852;12.070;2024-02-16T00:43:46;5.10;99.90
16966;DHT22;8599;47.852;12.070;2024-02-16T00:46:13;5.10;99.90
16966;DHT22;8599;47.852;12.070;2024-02-16T00:48:40;5.20;99.90
16966;DHT22;8599;47.852;12.070;2024-02-16T00:51:07;5.10;99.90
16966;DHT22;8599;47.852;12.070;2024-02-16T00:53:34;5.00;99.90
16966;DHT22;8599;47.852;12.070;2024-02-16T00:56:01;5.10;99.90
16966;DHT22;8599;47.852;12.070;2024-02-16T00:58:28;5.20;99.90
16966;DHT22;8599;47.852;12.070;2024-02-16T01:00:57;5.20;99.90
16966;DHT22;8599;47.852;12.070;2024-02-16T01:03:24;5.10;99.90
16966;DHT22;8599;47.852;12.070;2024-02-16T01:05:51;5.00;99.90
16966;DHT22;8599;47.852;12.070;2024-02-16T01:08:18;4.80;99.90
16966;DHT22;8599;47.852;12.070;2024-02-16T01:10:45;4.60;99.90
16966;DHT22;8599;47.852;12.070;2024-02-16T01:13:13;4.60;99.90
16966;DHT22;8599;47.852;12.070;2024-02-16T01:15:40;4.70;99.90
16966;DHT22;8599;47.852;12.070;2024-02-16T01:18:08;4.80;99.90
16966;DHT22;8599;47.852;12.070;2024-02-16T01:20:35;4.80;99.90
16966;DHT22;8599;47.852;12.070;2024-02-16T01:23:02;4.80;99.90
16966;DHT22;8599;47.852;12.070;2024-02-16T01:25:30;4.80;99.90
16966;DHT22;8599;47.852;12.070;2024-02-16T01:27:57;4.90;99.90
16966;DHT22;8599;47.852;12.070;2024-02-16T01:30:24;4.90;99.90
16966;DHT22;8599;47.852;12.070;2024-02-16T01:32:51;4.80;99.90
16966;DHT22;8599;47.852;12.070;2024-02-16T01:35:20;4.80;99.90
16966;DHT22;8599;47.852;12.070;2024-02-16T01:37:47;4.80;99.90
16966;DHT22;8599;47.852;12.070;2024-02-16T01:40:14;4.80;99.90
16966;DHT22;8599;47.852;12.070;2024-02-16T01:42:42;4.60;99.90
16966;DHT22;8599;47.852;12.070;2024-02-16T01:45:10;4.40;99.90
16966;DHT22;8599;47.852;12.070;2024-02-16T01:47:38;4.30;99.90
16966;DHT22;8599;47.852;12.070;2024-02-16T01:50:06;4.40;99.90
16966;DHT22;8599;47.852;12.070;2024-02-16T01:52:35;4.40;99.90
16966;DHT22;8599;47.852;12.070;2024-02-16T01:55:03;4.40;99.90
16966;DHT22;8599;47.852;12.070;2024-02-16T01:57:30;4.50;99.90
16966;DHT22;8599;47.852;12.070;2024-02-16T01:59:58;4.50;99.90
16966;DHT22;8599;47.852;12.070;2024-02-16T02:02:26;4.40;99.90
16966;DHT22;8599;47.852;12.070;2024-02-16T02:04:53;4.40;99.90
16966;DHT22;8599;47.852;12.070;2024-02-16T02:07:25;4.40;99.90
16966;DHT22;8599;47.852;12.070;2024-02-16T02:09:54;4.30;99.90
16966;DHT22;8599;47.852;12.070;2024-02-16T02:12:21;4.40;99.90
16966;DHT22;8599;47.852;12.070;2024-02-16T02:14:48;4.40;99.90
16966;DHT22;8599;47.852;12.070;2024-02-16T02:17:15;4.40;99.90
16966;DHT22;8599;47.852;12.070;2024-02-16T02:19:42;4.40;99.90
16966;DHT22;8599;47.852;12.070;2024-02-16T02:22:14;4.30;99.90
16966;DHT22;8599;47.852;12.070;2024-02-16T02:24:41;4.20;99.90
16966;DHT22;8599;47.852;12.070;2024-02-16T02:27:07;4.10;99.90
16966;DHT22;8599;47.852;12.070;2024-02-16T02:29:34;4.20;99.90
16966;DHT22;8599;47.852;12.070;2024-02-16T02:32:01;4.20;99.90
16966;DHT22;8599;47.852;12.070;2024-02-16T02:34:28;4.20;99.90
16966;DHT22;8599;47.852;12.070;2024-02-16T02:36:55;4.20;99.90
16966;DHT22;8599;47.852;12.070;2024-02-16T02:39:23;4.20;99.90
16966;DHT22;8599;47.852;12.070;2024-02-16T02:41:50;4.30;99.90
16966;DHT22;8599;47.852;12.070;2024-02-16T02:44:18;4.30;99.90
16966;DHT22;8599;47.852;12.070;2024-02-16T02:46:45;4.40;99.90
16966;DHT22;8599;47.852;12.070;2024-02-16T02:49:12;4.40;99.90
16966;DHT22;8599;47.852;12.070;2024-02-16T02:51:39;4.40;99.90
16966;DHT22;8599;47.852;12.070;2024-02-16T02:54:06;4.40;99.90
16966;DHT22;8599;47.852;12.070;2024-02-16T02:56:34;4.30;99.90
16966;DHT22;8599;47.852;12.070;2024-02-16T02:59:01;4.30;99.90
16966;DHT22;8599;47.852;12.070;2024-02-16T03:01:28;4.30;99.90
16966;DHT22;8599;47.852;12.070;2024-02-16T03:03:55;4.30;99.90
16966;DHT22;8599;47.852;12.070;2024-02-16T03:06:23;4.30;99.90
16966;DHT22;8599;47.852;12.070;2024-02-16T03:08:50;4.30;99.90
16966;DHT22;8599;47.852;12.070;2024-02-16T03:11:17;4.30;99.90
16966;DHT22;8599;47.852;12.070;2024-02-16T03:13:45;4.40;99.90
16966;DHT22;8599;47.852;12.070;2024-02-16T03:16:12;4.40;99.90
16966;DHT22;8599;47.852;12.070;2024-02-16T03:18:39;4.40;99.90
16966;DHT22;8599;47.852;12.070;2024-02-16T03:21:06;4.30;99.90
16966;DHT22;8599;47.852;12.070;2024-02-16T03:23:33;4.30;99.90
16966;DHT22;8599;47.852;12.070;2024-02-16T03:26:00;4.30;99.90
16966;DHT22;8599;47.852;12.070;2024-02-16T03:28:27;4.40;99.90
16966;DHT22;8599;47.852;12.070;2024-02-16T03:30:55;4.40;99.90
16966;DHT22;8599;47.852;12.070;2024-02-16T03:33:21;4.40;99.90
16966;DHT22;8599;47.852;12.070;2024-02-16T03:35:48;4.40;99.90
16966;DHT22;8599;47.852;12.070;2024-02-16T03:38:15;4.40;99.90
16966;DHT22;8599;47.852;12.070;2024-02-16T03:40:42;4.40;99.90
16966;DHT22;8599;47.852;12.070;2024-02-16T03:43:09;4.10;99.90
16966;DHT22;8599;47.852;12.070;2024-02-16T03:45:37;4.00;99.90
16966;DHT22;8599;47.852;12.070;2024-02-16T03:48:06;4.00;99.90
16966;DHT22;8599;47.852;12.070;2024-02-16T03:50:33;4.00;99.90
16966;DHT22;8599;47.852;12.070;2024-02-16T03:53:01;4.00;99.90
16966;DHT22;8599;47.852;12.070;2024-02-16T03:55:27;4.00;99.90
16966;DHT22;8599;47.852;12.070;2024-02-16T03:57:54;4.10;99.90
16966;DHT22;8599;47.852;12.070;2024-02-16T04:00:21;4.20;99.90
16966;DHT22;8599;47.852;12.070;2024-02-16T04:02:48;4.20;99.90
16966;DHT22;8599;47.852;12.070;2024-02-16T04:05:16;4.30;99.90
16966;DHT22;8599;47.852;12.070;2024-02-16T04:07:43;4.30;99.90
16966;DHT22;8599;47.852;12.070;2024-02-16T04:10:10;4.40;99.90
16966;DHT22;8599;47.852;12.070;2024-02-16T04:12:36;4.50;99.90
16966;DHT22;8599;47.852;12.070;2024-02-16T04:15:04;4.50;99.90
16966;DHT22;8599;47.852;12.070;2024-02-16T04:17:31;4.50;99.90
16966;DHT22;8599;47.852;12.070;2024-02-16T04:19:57;4.40;99.90
16966;DHT22;8599;47.852;12.070;2024-02-16T04:22:26;4.10;99.90
16966;DHT22;8599;47.852;12.070;2024-02-16T04:24:52;3.90;99.90
16966;DHT22;8599;47.852;12.070;2024-02-16T04:27:19;4.00;99.90
16966;DHT22;8599;47.852;12.070;2024-02-16T04:29:46;4.00;99.90
16966;DHT22;8599;47.852;12.070;2024-02-16T04:32:13;3.90;99.90
16966;DHT22;8599;47.852;12.070;2024-02-16T04:34:40;3.80;99.90
16966;DHT22;8599;47.852;12.070;2024-02-16T04:37:06;3.80;99.90
16966;DHT22;8599;47.852;12.070;2024-02-16T04:39:34;3.70;99.90
16966;DHT22;8599;47.852;12.070;2024-02-16T04:42:01;3.60;99.90
16966;DHT22;8599;47.852;12.070;2024-02-16T04:44:28;3.60;99.90
16966;DHT22;8599;47.852;12.070;2024-02-16T04:46:55;3.70;99.90
16966;DHT22;8599;47.852;12.070;2024-02-16T04:49:22;3.70;99.90
16966;DHT22;8599;47.852;12.070;2024-02-16T04:51:49;3.80;99.90
16966;DHT22;8599;47.852;12.070;2024-02-16T04:54:16;3.80;99.90
16966;DHT22;8599;47.852;12.070;2024-02-16T04:56:44;3.80;99.90
16966;DHT22;8599;47.852;12.070;2024-02-16T04:59:10;3.90;99.90
16966;DHT22;8599;47.852;12.070;2024-02-16T05:01:37;3.90;99.90
16966;DHT22;8599;47.852;12.070;2024-02-16T05:04:04;4.00;99.90
16966;DHT22;8599;47.852;12.070;2024-02-16T05:06:32;4.00;99.90
16966;DHT22;8599;47.852;12.070;2024-02-16T05:08:59;4.00;99.90
16966;DHT22;8599;47.852;12.070;2024-02-16T05:11:26;4.00;99.90
16966;DHT22;8599;47.852;12.070;2024-02-16T05:13:56;3.90;99.90
16966;DHT22;8599;47.852;12.070;2024-02-16T05:16:23;3.90;99.90
16966;DHT22;8599;47.852;12.070;2024-02-16T05:18:51;3.90;99.90
16966;DHT22;8599;47.852;12.070;2024-02-16T05:21:18;4.00;99.90
16966;DHT22;8599;47.852;12.070;2024-02-16T05:23:45;4.00;99.90
16966;DHT22;8599;47.852;12.070;2024-02-16T05:26:12;4.10;99.90
16966;DHT22;8599;47.852;12.070;2024-02-16T05:28:38;4.10;99.90
16966;DHT22;8599;47.852;12.070;2024-02-16T05:31:16;4.00;99.90
16966;DHT22;8599;47.852;12.070;2024-02-16T05:33:44;4.00;99.90
16966;DHT22;8599;47.852;12.070;2024-02-16T05:36:11;3.90;99.90
16966;DHT22;8599;47.852;12.070;2024-02-16T05:38:38;3.80;99.90
16966;DHT22;8599;47.852;12.070;2024-02-16T05:41:08;3.80;99.90
16966;DHT22;8599;47.852;12.070;2024-02-16T05:43:36;3.90;99.90
16966;DHT22;8599;47.852;12.070;2024-02-16T05:46:03;3.80;99.90
16966;DHT22;8599;47.852;12.070;2024-02-16T05:48:33;3.90;99.90
16966;DHT22;8599;47.852;12.070;2024-02-16T05:51:03;3.90;99.90
16966;DHT22;8599;47.852;12.070;2024-02-16T05:53:31;4.00;99.90
16966;DHT22;8599;47.852;12.070;2024-02-16T05:55:57;3.90;99.90
16966;DHT22;8599;47.852;12.070;2024-02-16T05:58:24;3.80;99.90
16966;DHT22;8599;47.852;12.070;2024-02-16T06:00:51;3.90;99.90
16966;DHT22;8599;47.852;12.070;2024-02-16T06:03:18;4.00;99.90
16966;DHT22;8599;47.852;12.070;2024-02-16T06:05:46;4.10;99.90
16966;DHT22;8599;47.852;12.070;2024-02-16T06:08:13;4.00;99.90
16966;DHT22;8599;47.852;12.070;2024-02-16T06:10:41;4.10;99.90
16966;DHT22;8599;47.852;12.070;2024-02-16T06:13:08;4.10;99.90
16966;DHT22;8599;47.852;12.070;2024-02-16T06:15:35;4.10;99.90
16966;DHT22;8599;47.852;12.070;2024-02-16T06:18:03;4.00;99.90
16966;DHT22;8599;47.852;12.070;2024-02-16T06:20:29;4.00;99.90
16966;DHT22;8599;47.852;12.070;2024-02-16T06:22:57;3.90;99.90
16966;DHT22;8599;47.852;12.070;2024-02-16T06:25:24;3.90;99.90
16966;DHT22;8599;47.852;12.070;2024-02-16T06:27:51;3.90;99.90
16966;DHT22;8599;47.852;12.070;2024-02-16T06:30:18;3.70;99.90
16966;DHT22;8599;47.852;12.070;2024-02-16T06:32:45;3.60;99.90
16966;DHT22;8599;47.852;12.070;2024-02-16T06:35:11;3.60;99.90
16966;DHT22;8599;47.852;12.070;2024-02-16T06:37:38;3.70;99.90
16966;DHT22;8599;47.852;12.070;2024-02-16T06:40:08;3.70;99.90
16966;DHT22;8599;47.852;12.070;2024-02-16T06:42:36;3.60;99.90
16966;DHT22;8599;47.852;12.070;2024-02-16T06:45:03;3.40;99.90
16966;DHT22;8599;47.852;12.070;2024-02-16T06:47:30;3.40;99.90
16966;DHT22;8599;47.852;12.070;2024-02-16T06:49:57;3.40;99.90
16966;DHT22;8599;47.852;12.070;2024-02-16T06:52:24;3.40;99.90
16966;DHT22;8599;47.852;12.070;2024-02-16T06:54:51;3.60;99.90
16966;DHT22;8599;47.852;12.070;2024-02-16T06:57:20;3.80;99.90
16966;DHT22;8599;47.852;12.070;2024-02-16T06:59:47;3.80;99.90
16966;DHT22;8599;47.852;12.070;2024-02-16T07:02:13;3.60;99.90
16966;DHT22;8599;47.852;12.070;2024-02-16T07:04:41;3.60;99.90
16966;DHT22;8599;47.852;12.070;2024-02-16T07:07:08;3.70;99.90
16966;DHT22;8599;47.852;12.070;2024-02-16T07:09:35;3.70;99.90
16966;DHT22;8599;47.852;12.070;2024-02-16T07:12:02;3.70;99.90
16966;DHT22;8599;47.852;12.070;2024-02-16T07:14:31;3.90;99.90
16966;DHT22;8599;47.852;12.070;2024-02-16T07:16:58;4.00;99.90
16966;DHT22;8599;47.852;12.070;2024-02-16T07:19:25;4.20;99.90
16966;DHT22;8599;47.852;12.070;2024-02-16T07:21:52;4.30;99.90
16966;DHT22;8599;47.852;12.070;2024-02-16T07:24:19;4.50;99.90
16966;DHT22;8599;47.852;12.070;2024-02-16T07:26:45;4.60;99.90
16966;DHT22;8599;47.852;12.070;2024-02-16T07:29:12;4.80;99.90
16966;DHT22;8599;47.852;12.070;2024-02-16T07:31:43;5.00;99.90
16966;DHT22;8599;47.852;12.070;2024-02-16T07:34:10;5.30;99.90
16966;DHT22;8599;47.852;12.070;2024-02-16T07:36:37;5.50;99.90
16966;DHT22;8599;47.852;12.070;2024-02-16T07:39:04;5.60;99.90
16966;DHT22;8599;47.852;12.070;2024-02-16T07:41:31;5.80;99.90
16966;DHT22;8599;47.852;12.070;2024-02-16T07:43:58;6.00;99.90
16966;DHT22;8599;47.852;12.070;2024-02-16T07:46:25;6.10;99.90
16966;DHT22;8599;47.852;12.070;2024-02-16T07:48:53;6.30;99.90
16966;DHT22;8599;47.852;12.070;2024-02-16T07:51:20;6.40;99.90
16966;DHT22;8599;47.852;12.070;2024-02-16T07:53:47;6.70;99.90
16966;DHT22;8599;47.852;12.070;2024-02-16T07:56:15;6.90;99.90
16966;DHT22;8599;47.852;12.070;2024-02-16T07:58:42;7.10;99.90
16966;DHT22;8599;47.852;12.070;2024-02-16T08:01:09;7.10;99.90
16966;DHT22;8599;47.852;12.070;2024-02-16T08:03:40;7.20;99.90
16966;DHT22;8599;47.852;12.070;2024-02-16T08:06:09;7.30;99.90
16966;DHT22;8599;47.852;12.070;2024-02-16T08:08:35;7.40;99.90
16966;DHT22;8599;47.852;12.070;2024-02-16T08:11:02;7.50;99.90
16966;DHT22;8599;47.852;12.070;2024-02-16T08:13:29;7.60;99.90
16966;DHT22;8599;47.852;12.070;2024-02-16T08:15:56;7.70;99.90
16966;DHT22;8599;47.852;12.070;2024-02-16T08:18:23;7.80;99.90
16966;DHT22;8599;47.852;12.070;2024-02-16T08:20:50;8.00;99.90
16966;DHT22;8599;47.852;12.070;2024-02-16T08:23:18;8.20;99.90
16966;DHT22;8599;47.852;12.070;2024-02-16T08:25:46;8.30;99.90
16966;DHT22;8599;47.852;12.070;2024-02-16T08:28:12;8.40;99.90
16966;DHT22;8599;47.852;12.070;2024-02-16T08:30:39;8.60;99.90
16966;DHT22;8599;47.852;12.070;2024-02-16T08:33:09;8.70;99.90
16966;DHT22;8599;47.852;12.070;2024-02-16T08:35:36;8.90;99.90
16966;DHT22;8599;47.852;12.070;2024-02-16T08:38:04;9.10;99.90
16966;DHT22;8599;47.852;12.070;2024-02-16T08:40:32;9.00;99.90
16966;DHT22;8599;47.852;12.070;2024-02-16T08:42:59;9.10;99.90
16966;DHT22;8599;47.852;12.070;2024-02-16T08:45:28;8.90;99.90
16966;DHT22;8599;47.852;12.070;2024-02-16T08:47:55;8.90;99.90
16966;DHT22;8599;47.852;12.070;2024-02-16T08:50:23;9.00;99.90
16966;DHT22;8599;47.852;12.070;2024-02-16T08:52:50;9.00;99.90
16966;DHT22;8599;47.852;12.070;2024-02-16T08:55:17;8.90;99.90
16966;DHT22;8599;47.852;12.070;2024-02-16T08:57:45;8.80;99.90
16966;DHT22;8599;47.852;12.070;2024-02-16T09:00:14;8.80;99.90
16966;DHT22;8599;47.852;12.070;2024-02-16T09:02:41;8.80;99.90
16966;DHT22;8599;47.852;12.070;2024-02-16T09:05:08;8.70;99.90
16966;DHT22;8599;47.852;12.070;2024-02-16T09:07:36;8.60;99.90
16966;DHT22;8599;47.852;12.070;2024-02-16T09:10:03;8.50;99.90
16966;DHT22;8599;47.852;12.070;2024-02-16T09:12:30;8.50;99.90
16966;DHT22;8599;47.852;12.070;2024-02-16T09:14:59;8.40;99.90
16966;DHT22;8599;47.852;12.070;2024-02-16T09:17:25;8.40;99.90
16966;DHT22;8599;47.852;12.070;2024-02-16T09:19:53;8.50;99.90
16966;DHT22;8599;47.852;12.070;2024-02-16T09:22:20;8.70;99.90
16966;DHT22;8599;47.852;12.070;2024-02-16T09:24:46;8.60;99.90
16966;DHT22;8599;47.852;12.070;2024-02-16T09:27:13;8.50;99.90
16966;DHT22;8599;47.852;12.070;2024-02-16T09:29:40;8.40;99.90
16966;DHT22;8599;47.852;12.070;2024-02-16T09:32:09;8.40;99.90
16966;DHT22;8599;47.852;12.070;2024-02-16T09:34:36;8.40;99.90
16966;DHT22;8599;47.852;12.070;2024-02-16T09:37:03;8.40;99.90
16966;DHT22;8599;47.852;12.070;2024-02-16T09:39:30;8.60;99.90
16966;DHT22;8599;47.852;12.070;2024-02-16T09:41:57;8.70;99.90
16966;DHT22;8599;47.852;12.070;2024-02-16T09:44:25;8.90;99.90
16966;DHT22;8599;47.852;12.070;2024-02-16T09:46:53;9.00;99.90
16966;DHT22;8599;47.852;12.070;2024-02-16T09:49:22;9.10;99.90
16966;DHT22;8599;47.852;12.070;2024-02-16T09:51:49;9.30;99.90
16966;DHT22;8599;47.852;12.070;2024-02-16T09:54:15;9.50;99.90
16966;DHT22;8599;47.852;12.070;2024-02-16T09:56:42;9.60;99.90
16966;DHT22;8599;47.852;12.070;2024-02-16T09:59:11;9.70;99.90
16966;DHT22;8599;47.852;12.070;2024-02-16T10:01:38;9.80;99.90
16966;DHT22;8599;47.852;12.070;2024-02-16T10:04:07;10.00;99.90
16966;DHT22;8599;47.852;12.070;2024-02-16T10:06:48;10.30;99.90
16966;DHT22;8599;47.852;12.070;2024-02-16T10:09:23;10.30;99.90
16966;DHT22;8599;47.852;12.070;2024-02-16T10:11:50;10.50;99.90
16966;DHT22;8599;47.852;12.070;2024-02-16T10:14:17;10.60;99.90
16966;DHT22;8599;47.852;12.070;2024-02-16T10:16:44;10.80;99.90
16966;DHT22;8599;47.852;12.070;2024-02-16T10:19:11;10.80;99.90
16966;DHT22;8599;47.852;12.070;2024-02-16T10:21:38;10.80;99.90
16966;DHT22;8599;47.852;12.070;2024-02-16T10:24:08;11.00;99.90
16966;DHT22;8599;47.852;12.070;2024-02-16T10:26:35;11.00;99.90
16966;DHT22;8599;47.852;12.070;2024-02-16T10:29:04;11.20;99.90
16966;DHT22;8599;47.852;12.070;2024-02-16T10:31:32;11.30;99.90
16966;DHT22;8599;47.852;12.070;2024-02-16T10:34:00;11.30;99.90
16966;DHT22;8599;47.852;12.070;2024-02-16T10:36:32;11.30;99.90
16966;DHT22;8599;47.852;12.070;2024-02-16T10:38:59;11.40;99.90
16966;DHT22;8599;47.852;12.070;2024-02-16T10:41:33;11.40;99.90
16966;DHT22;8599;47.852;12.070;2024-02-16T10:44:01;11.60;99.90
16966;DHT22;8599;47.852;12.070;2024-02-16T10:46:29;11.90;99.90
16966;DHT22;8599;47.852;12.070;2024-02-16T10:48:56;12.00;99.90
16966;DHT22;8599;47.852;12.070;2024-02-16T10:51:26;12.20;99.90
16966;DHT22;8599;47.852;12.070;2024-02-16T10:53:55;12.20;99.90
16966;DHT22;8599;47.852;12.070;2024-02-16T10:56:34;12.30;99.90
16966;DHT22;8599;47.852;12.070;2024-02-16T10:59:02;12.30;99.90
16966;DHT22;8599;47.852;12.070;2024-02-16T11:01:36;12.40;99.90
16966;DHT22;8599;47.852;12.070;2024-02-16T11:04:05;12.50;99.90
16966;DHT22;8599;47.852;12.070;2024-02-16T11:06:45;12.50;99.90
16966;DHT22;8599;47.852;12.070;2024-02-16T11:09:25;12.70;99.90
16966;DHT22;8599;47.852;12.070;2024-02-16T11:11:54;12.80;99.90
16966;DHT22;8599;47.852;12.070;2024-02-16T11:14:22;12.70;99.90
16966;DHT22;8599;47.852;12.070;2024-02-16T11:16:53;12.60;99.90
16966;DHT22;8599;47.852;12.070;2024-02-16T11:19:21;12.70;99.90
16966;DHT22;8599;47.852;12.070;2024-02-16T11:21:56;12.70;99.90
16966;DHT22;8599;47.852;12.070;2024-02-16T11:24:30;12.60;99.90
16966;DHT22;8599;47.852;12.070;2024-02-16T11:27:00;12.50;99.90
16966;DHT22;8599;47.852;12.070;2024-02-16T11:29:33;12.50;99.90
16966;DHT22;8599;47.852;12.070;2024-02-16T11:32:00;12.60;99.90
16966;DHT22;8599;47.852;12.070;2024-02-16T11:34:28;12.70;99.90
16966;DHT22;8599;47.852;12.070;2024-02-16T11:36:55;12.90;99.90
16966;DHT22;8599;47.852;12.070;2024-02-16T11:39:24;12.90;99.90
16966;DHT22;8599;47.852;12.070;2024-02-16T11:42:00;12.90;99.90
16966;DHT22;8599;47.852;12.070;2024-02-16T11:44:28;13.10;99.90
16966;DHT22;8599;47.852;12.070;2024-02-16T11:46:55;13.10;99.90
16966;DHT22;8599;47.852;12.070;2024-02-16T11:49:22;13.10;99.90
16966;DHT22;8599;47.852;12.070;2024-02-16T11:51:49;13.20;99.90
16966;DHT22;8599;47.852;12.070;2024-02-16T11:54:16;13.40;99.90
16966;DHT22;8599;47.852;12.070;2024-02-16T11:56:44;13.70;99.90
16966;DHT22;8599;47.852;12.070;2024-02-16T11:59:14;13.90;99.90
16966;DHT22;8599;47.852;12.070;2024-02-16T12:01:54;13.90;99.90
16966;DHT22;8599;47.852;12.070;2024-02-16T12:04:22;13.90;99.90
16966;DHT22;8599;47.852;12.070;2024-02-16T12:06:51;14.00;99.90
16966;DHT22;8599;47.852;12.070;2024-02-16T12:09:18;14.20;99.90
16966;DHT22;8599;47.852;12.070;2024-02-16T12:11:46;14.20;99.90
16966;DHT22;8599;47.852;12.070;2024-02-16T12:14:15;14.20;99.90
16966;DHT22;8599;47.852;12.070;2024-02-16T12:16:41;14.30;99.90
16966;DHT22;8599;47.852;12.070;2024-02-16T12:19:08;14.40;99.90
16966;DHT22;8599;47.852;12.070;2024-02-16T12:21:38;14.50;99.90
16966;DHT22;8599;47.852;12.070;2024-02-16T12:24:05;14.80;99.90
16966;DHT22;8599;47.852;12.070;2024-02-16T12:26:32;14.90;99.90
16966;DHT22;8599;47.852;12.070;2024-02-16T12:28:59;15.10;99.90
16966;DHT22;8599;47.852;12.070;2024-02-16T12:31:27;15.10;99.90
16966;DHT22;8599;47.852;12.070;2024-02-16T12:33:54;15.20;99.90
16966;DHT22;8599;47.852;12.070;2024-02-16T12:36:20;15.30;99.90
16966;DHT22;8599;47.852;12.070;2024-02-16T12:38:48;15.30;99.90
16966;DHT22;8599;47.852;12.070;2024-02-16T12:41:15;15.40;99.90
16966;DHT22;8599;47.852;12.070;2024-02-16T12:43:42;15.50;99.90
16966;DHT22;8599;47.852;12.070;2024-02-16T12:46:09;15.70;99.90
16966;DHT22;8599;47.852;12.070;2024-02-16T12:48:37;15.80;99.80
16966;DHT22;8599;47.852;12.070;2024-02-16T12:51:04;15.90;99.70
16966;DHT22;8599;47.852;12.070;2024-02-16T12:53:31;16.10;99.20
16966;DHT22;8599;47.852;12.070;2024-02-16T12:56:06;16.10;99.10
16966;DHT22;8599;47.852;12.070;2024-02-16T12:58:33;16.20;99.10
16966;DHT22;8599;47.852;12.070;2024-02-16T13:01:00;16.30;99.00
16966;DHT22;8599;47.852;12.070;2024-02-16T13:03:27;16.50;98.20
16966;DHT22;8599;47.852;12.070;2024-02-16T13:05:55;16.60;97.70
16966;DHT22;8599;47.852;12.070;2024-02-16T13:08:22;16.80;97.50
16966;DHT22;8599;47.852;12.070;2024-02-16T13:10:49;16.90;97.10
16966;DHT22;8599;47.852;12.070;2024-02-16T13:13:16;16.90;97.40
16966;DHT22;8599;47.852;12.070;2024-02-16T13:15:43;17.00;97.10
16966;DHT22;8599;47.852;12.070;2024-02-16T13:18:10;17.00;97.10
16966;DHT22;8599;47.852;12.070;2024-02-16T13:20:36;17.00;96.80
16966;DHT22;8599;47.852;12.070;2024-02-16T13:23:05;17.00;96.80
16966;DHT22;8599;47.852;12.070;2024-02-16T13:25:32;17.00;96.70
16966;DHT22;8599;47.852;12.070;2024-02-16T13:27:58;17.00;96.70
16966;DHT22;8599;47.852;12.070;2024-02-16T13:30:26;17.30;96.40
16966;DHT22;8599;47.852;12.070;2024-02-16T13:32:53;17.40;96.20
16966;DHT22;8599;47.852;12.070;2024-02-16T13:35:20;17.50;96.30
16966;DHT22;8599;47.852;12.070;2024-02-16T13:37:47;17.50;96.50
16966;DHT22;8599;47.852;12.070;2024-02-16T13:40:15;17.80;96.10
16966;DHT22;8599;47.852;12.070;2024-02-16T13:42:43;17.90;96.10
16966;DHT22;8599;47.852;12.070;2024-02-16T13:45:11;17.90;95.90
16966;DHT22;8599;47.852;12.070;2024-02-16T13:47:38;18.00;95.80
16966;DHT22;8599;47.852;12.070;2024-02-16T13:50:06;18.20;95.20
16966;DHT22;8599;47.852;12.070;2024-02-16T13:52:34;18.30;95.10
16966;DHT22;8599;47.852;12.070;2024-02-16T13:55:01;18.30;95.20
16966;DHT22;8599;47.852;12.070;2024-02-16T13:57:29;18.30;95.00
16966;DHT22;8599;47.852;12.070;2024-02-16T13:59:56;18.30;95.30
16966;DHT22;8599;47.852;12.070;2024-02-16T14:02:23;18.40;94.80
16966;DHT22;8599;47.852;12.070;2024-02-16T14:04:50;18.40;94.60
16966;DHT22;8599;47.852;12.070;2024-02-16T14:07:18;18.40;94.50
16966;DHT22;8599;47.852;12.070;2024-02-16T14:09:44;18.40;94.60
16966;DHT22;8599;47.852;12.070;2024-02-16T14:12:11;18.30;95.10
16966;DHT22;8599;47.852;12.070;2024-02-16T14:14:39;18.30;94.90
16966;DHT22;8599;47.852;12.070;2024-02-16T14:17:06;18.40;95.10
16966;DHT22;8599;47.852;12.070;2024-02-16T14:19:33;18.60;95.20
16966;DHT22;8599;47.852;12.070;2024-02-16T14:22:02;18.60;94.90
16966;DHT22;8599;47.852;12.070;2024-02-16T14:24:32;18.60;95.10
16966;DHT22;8599;47.852;12.070;2024-02-16T14:26:59;18.70;94.70
16966;DHT22;8599;47.852;12.070;2024-02-16T14:29:26;18.90;94.90
16966;DHT22;8599;47.852;12.070;2024-02-16T14:31:55;19.10;95.20
16966;DHT22;8599;47.852;12.070;2024-02-16T14:34:22;19.50;94.30
16966;DHT22;8599;47.852;12.070;2024-02-16T14:36:49;19.80;93.60
16966;DHT22;8599;47.852;12.070;2024-02-16T14:39:16;19.90;93.20
16966;DHT22;8599;47.852;12.070;2024-02-16T14:41:43;19.90;93.20
16966;DHT22;8599;47.852;12.070;2024-02-16T14:44:09;19.80;93.30
16966;DHT22;8599;47.852;12.070;2024-02-16T14:46:36;19.70;93.70
16966;DHT22;8599;47.852;12.070;2024-02-16T14:49:05;19.60;93.80
16966;DHT22;8599;47.852;12.070;2024-02-16T14:51:34;19.50;93.80
16966;DHT22;8599;47.852;12.070;2024-02-16T14:54:00;19.50;93.70
16966;DHT22;8599;47.852;12.070;2024-02-16T14:56:29;19.20;93.70
16966;DHT22;8599;47.852;12.070;2024-02-16T14:58:56;18.90;94.30
16966;DHT22;8599;47.852;12.070;2024-02-16T15:01:23;18.50;94.60
16966;DHT22;8599;47.852;12.070;2024-02-16T15:03:49;18.20;95.00
16966;DHT22;8599;47.852;12.070;2024-02-16T15:06:18;17.90;96.20
16966;DHT22;8599;47.852;12.070;2024-02-16T15:08:44;17.60;96.50
16966;DHT22;8599;47.852;12.070;2024-02-16T15:11:11;17.40;96.50
16966;DHT22;8599;47.852;12.070;2024-02-16T15:13:38;17.20;96.90
16966;DHT22;8599;47.852;12.070;2024-02-16T15:16:06;17.10;97.30
16966;DHT22;8599;47.852;12.070;2024-02-16T15:18:34;17.00;97.70
16966;DHT22;8599;47.852;12.070;2024-02-16T15:21:01;16.80;98.30
16966;DHT22;8599;47.852;12.070;2024-02-16T15:23:29;16.80;98.70
16966;DHT22;8599;47.852;12.070;2024-02-16T15:25:56;16.80;99.10
16966;DHT22;8599;47.852;12.070;2024-02-16T15:28:24;16.70;99.50
16966;DHT22;8599;47.852;12.070;2024-02-16T15:30:51;16.60;99.90
16966;DHT22;8599;47.852;12.070;2024-02-16T15:33:17;16.50;99.90
16966;DHT22;8599;47.852;12.070;2024-02-16T15:35:44;16.60;99.90
16966;DHT22;8599;47.852;12.070;2024-02-16T15:38:11;16.50;99.90
16966;DHT22;8599;47.852;12.070;2024-02-16T15:40:39;16.40;99.90
16966;DHT22;8599;47.852;12.070;2024-02-16T15:43:06;16.30;99.90